Time;durP1;ratioP1;P1;durP2;ratioP2;P2;SDS_P1;SDS_P2;PMS_P1;PMS_P2;Temp;Humidity;BMP_temperature;BMP_pressure;BME280_temperature;BME280_humidity;BME280_pressure;Samples;Min_cycle;Max_cycle;Signal;HPM_P1;HPM_P2
2021/09/16 00:00:31;;;;;;;1.03;0.50;;;;;;;12.52;68.98;101529.16;5030698;28;20198;-74
2021/09/16 00:02:59;;;;;;;0.60;0.57;;;;;;;12.50;69.38;101539.16;5030628;28;20208;-74
2021/09/16 00:05:27;;;;;;;0.80;0.33;;;;;;;12.47;69.47;101529.47;5030934;28;20233;-74
2021/09/16 00:07:55;;;;;;;916.23;794.50;;;;;;;12.46;69.61;101526.84;5029590;28;20207;-74
2021/09/16 00:10:23;;;;;;;868.40;747.43;;;;;;;12.48;69.40;101533.88;5031032;28;20426;-75
2021/09/16 00:12:51;;;;;;;2.03;0.40;;;;;;;12.41;70.18;101527.16;5031154;28;20440;-74
2021/09/16 00:15:19;;;;;;;0.87;0.37;;;;;;;12.44;69.97;101527.81;5030468;28;20252;-74
2021/09/16 00:17:49;;;;;;;0.83;0.50;;;;;;;12.44;70.12;101521.56;5030972;28;20286;-74
2021/09/16 00:20:17;;;;;;;0.53;0.50;;;;;;;12.37;70.44;101522.94;5030674;28;20203;-74
2021/09/16 00:22:45;;;;;;;63.33;53.63;;;;;;;12.35;70.56;101519.47;5031030;28;20207;-74
2021/09/16 00:25:13;;;;;;;104.93;51.23;;;;;;;11.97;70.98;101468.88;5030645;28;20267;-74
2021/09/16 00:27:41;;;;;;;9.70;8.80;;;;;;;12.30;71.01;101508.13;5030844;28;20592;-74
2021/09/16 00:30:10;;;;;;;8.83;7.93;;;;;;;12.27;70.59;101506.50;5045651;28;20204;-74
2021/09/16 00:32:39;;;;;;;5.87;3.60;;;;;;;12.31;71.51;101509.84;5030735;28;20261;-74
2021/09/16 00:35:10;;;;;;;11.07;7.57;;;;;;;12.35;71.13;101514.09;5030010;28;20693;-74
2021/09/16 00:37:38;;;;;;;1.97;1.80;;;;;;;12.30;71.64;101511.69;5030523;28;20883;-74
2021/09/16 00:40:08;;;;;;;1.50;1.40;;;;;;;12.32;71.67;101514.28;5030642;28;20209;-74
2021/09/16 00:42:36;;;;;;;1.97;0.87;;;;;;;12.30;71.17;101505.44;5030605;28;20671;-74
2021/09/16 00:45:04;;;;;;;1.37;1.13;;;;;;;12.24;71.33;101500.41;5045983;28;20560;-74
2021/09/16 00:47:32;;;;;;;0.87;0.80;;;;;;;12.17;70.95;101508.00;5030052;28;20253;-74
2021/09/16 00:50:01;;;;;;;5.60;1.30;;;;;;;12.22;70.70;101502.31;5030186;28;20587;-74
2021/09/16 00:52:33;;;;;;;3.13;2.93;;;;;;;12.21;70.58;101505.97;5045569;28;20203;-74
2021/09/16 00:55:02;;;;;;;1.73;1.63;;;;;;;12.24;70.94;101505.78;5030061;28;20204;-74
2021/09/16 00:57:30;;;;;;;0.93;0.80;;;;;;;12.18;71.33;101506.19;5030230;28;20206;-74
2021/09/16 01:00:01;;;;;;;1.27;0.70;;;;;;;11.87;71.17;101465.00;5029985;28;20262;-74
2021/09/16 01:02:29;;;;;;;0.73;0.60;;;;;;;11.70;70.81;101447.19;5040460;28;20199;-74
2021/09/16 01:04:57;;;;;;;0.60;0.53;;;;;;;11.93;71.51;101496.03;5045146;28;20195;-75
2021/09/16 01:07:25;;;;;;;0.63;0.57;;;;;;;11.83;71.09;101482.28;5041914;28;20273;-75
2021/09/16 01:09:55;;;;;;;0.93;0.53;;;;;;;11.76;72.27;101494.38;5036788;28;20620;-75
2021/09/16 01:12:23;;;;;;;0.60;0.60;;;;;;;11.78;71.59;101497.88;5035897;28;20290;-75
2021/09/16 01:14:51;;;;;;;0.73;0.73;;;;;;;11.74;71.93;101502.53;5028796;28;20249;-75
2021/09/16 01:17:19;;;;;;;1.17;0.60;;;;;;;11.57;71.83;101477.59;5029513;28;20663;-75
2021/09/16 01:19:47;;;;;;;0.47;0.47;;;;;;;11.52;71.95;101486.81;5029280;28;20237;-75
2021/09/16 01:22:18;;;;;;;0.90;0.90;;;;;;;11.56;72.35;101479.41;5029434;28;20494;-75
2021/09/16 01:24:49;;;;;;;1.10;1.00;;;;;;;11.62;72.36;101481.72;5030030;28;20204;-75
2021/09/16 01:27:18;;;;;;;2.43;0.80;;;;;;;11.60;71.55;101485.47;5029414;28;20668;-75
2021/09/16 01:29:46;;;;;;;0.90;0.80;;;;;;;11.50;72.07;101482.47;5029640;28;20205;-75
2021/09/16 01:32:14;;;;;;;0.80;0.77;;;;;;;11.55;71.61;101485.75;5029533;28;20533;-74
2021/09/16 01:34:42;;;;;;;0.80;0.73;;;;;;;11.45;72.39;101482.75;5029735;28;20214;-74
2021/09/16 01:37:10;;;;;;;1.00;0.90;;;;;;;11.42;72.25;101480.25;5015927;28;20187;-75
2021/09/16 01:39:38;;;;;;;1.50;0.80;;;;;;;11.37;72.06;101478.81;5029603;28;20227;-74
2021/09/16 01:42:08;;;;;;;0.83;0.80;;;;;;;11.37;71.95;101468.91;5029085;28;20199;-74
2021/09/16 01:44:36;;;;;;;1.03;0.90;;;;;;;11.38;72.27;101478.72;5029485;28;20662;-74
2021/09/16 01:47:06;;;;;;;0.77;0.60;;;;;;;11.34;72.44;101474.47;5028848;28;20723;-74
2021/09/16 01:49:34;;;;;;;1.37;0.70;;;;;;;11.16;73.60;101472.84;5029433;28;20375;-74
2021/09/16 01:52:03;;;;;;;1.00;0.80;;;;;;;11.09;73.64;101471.47;5028974;28;20206;-74
2021/09/16 01:54:30;;;;;;;0.80;0.80;;;;;;;11.02;73.64;101470.09;5027790;28;20545;-74
2021/09/16 01:56:58;;;;;;;2.80;0.90;;;;;;;10.97;73.48;101467.66;5028825;28;20317;-74
2021/09/16 01:59:28;;;;;;;3.13;1.33;;;;;;;11.01;73.25;101469.22;5028716;28;20641;-74
2021/09/16 02:01:56;;;;;;;0.77;0.77;;;;;;;11.02;73.12;101457.53;5029423;28;20208;-74
2021/09/16 02:04:24;;;;;;;0.63;0.63;;;;;;;10.94;73.60;101450.84;5029309;28;20216;-74
2021/09/16 02:06:52;;;;;;;1.10;1.00;;;;;;;10.99;73.62;101446.06;5028953;28;20210;-74
2021/09/16 02:09:20;;;;;;;3.27;0.80;;;;;;;10.99;73.21;101444.25;5028792;28;20693;-73
2021/09/16 02:11:48;;;;;;;1.07;0.80;;;;;;;10.93;73.79;101446.44;5028844;28;20208;-74
2021/09/16 02:14:16;;;;;;;1.33;0.83;;;;;;;10.88;74.05;101431.44;5028935;28;20598;-74
2021/09/16 02:16:46;;;;;;;1.97;0.60;;;;;;;10.85;74.13;101434.31;5028984;28;21401;-74
2021/09/16 02:19:14;;;;;;;0.97;0.90;;;;;;;10.73;73.81;101416.22;5028567;28;20673;-74
2021/09/16 02:21:42;;;;;;;0.80;0.80;;;;;;;10.85;73.29;101426.25;5028899;28;20238;-74
2021/09/16 02:24:10;;;;;;;0.70;0.70;;;;;;;10.72;74.13;101433.31;5028444;28;20645;-74
2021/09/16 02:26:38;;;;;;;0.80;0.80;;;;;;;10.70;74.22;101421.75;5028608;28;20192;-74
2021/09/16 02:29:06;;;;;;;0.67;0.67;;;;;;;10.74;73.90;101423.34;5028582;28;20666;-74
2021/09/16 02:31:34;;;;;;;0.90;0.70;;;;;;;10.69;74.86;101420.03;5026954;28;20667;-74
2021/09/16 02:34:04;;;;;;;0.53;0.53;;;;;;;10.69;74.23;101421.84;5028218;28;20195;-74
2021/09/16 02:36:32;;;;;;;1.90;0.80;;;;;;;10.66;74.52;101416.66;5028685;28;20803;-73
2021/09/16 02:39:00;;;;;;;2.90;0.90;;;;;;;10.49;75.24;101412.25;5027842;28;20603;-74
2021/09/16 02:41:28;;;;;;;0.80;0.80;;;;;;;10.46;75.50;101404.38;5028587;28;20205;-74
2021/09/16 02:43:56;;;;;;;0.80;0.80;;;;;;;10.46;75.58;101415.97;5028339;28;20260;-73
2021/09/16 02:46:24;;;;;;;0.63;0.63;;;;;;;10.52;74.80;101418.31;5028554;28;20226;-73
2021/09/16 02:48:53;;;;;;;1.80;0.90;;;;;;;10.52;74.92;101406.72;5023813;28;20199;-73
2021/09/16 02:51:22;;;;;;;2.97;0.83;;;;;;;10.52;75.20;101410.25;5028734;28;20240;-74
2021/09/16 02:53:50;;;;;;;1.47;1.30;;;;;;;10.04;74.85;101336.00;5028336;28;20210;-74
2021/09/16 02:56:18;;;;;;;3.00;1.00;;;;;;;10.57;74.84;101410.84;5028180;28;20286;-73
2021/09/16 02:58:46;;;;;;;1.93;0.90;;;;;;;10.47;75.38;101414.16;5028530;28;20206;-73
2021/09/16 03:01:14;;;;;;;1.57;1.10;;;;;;;10.49;75.38;101412.25;5028188;28;20231;-73
2021/09/16 03:03:42;;;;;;;137.77;79.50;;;;;;;10.47;75.46;101411.47;5028328;28;20213;-74
2021/09/16 03:06:11;;;;;;;2.13;2.03;;;;;;;10.41;75.22;101409.16;5027951;28;20202;-73
2021/09/16 03:08:40;;;;;;;1.10;1.00;;;;;;;10.49;75.65;101407.75;5023524;28;20198;-74
2021/09/16 03:11:08;;;;;;;1.60;1.50;;;;;;;10.56;75.90;101405.56;5020721;28;20207;-73
2021/09/16 03:13:36;;;;;;;1.20;1.03;;;;;;;10.45;75.78;101392.78;5015374;28;20707;-73
2021/09/16 03:16:05;;;;;;;1.30;1.20;;;;;;;10.53;75.90;101400.38;5022011;28;20623;-73
2021/09/16 03:18:33;;;;;;;2.17;1.27;;;;;;;10.45;76.04;101397.28;5015406;28;20312;-74
2021/09/16 03:21:01;;;;;;;2.03;1.53;;;;;;;10.43;76.66;101396.50;5019928;28;20612;-73
2021/09/16 03:23:29;;;;;;;1.00;1.00;;;;;;;10.53;75.85;101386.94;5027051;28;20198;-74
2021/09/16 03:25:58;;;;;;;1.20;1.20;;;;;;;10.58;75.58;101387.56;5028035;28;20206;-73
2021/09/16 03:28:26;;;;;;;1.80;1.20;;;;;;;10.50;75.58;101389.81;5026117;28;20670;-74
2021/09/16 03:30:54;;;;;;;4.57;2.67;;;;;;;10.45;76.22;101397.28;5023004;28;20265;-74
2021/09/16 03:33:22;;;;;;;3.67;1.70;;;;;;;10.53;75.76;101381.59;5023851;28;20198;-74
2021/09/16 03:35:50;;;;;;;5.73;1.43;;;;;;;10.63;75.53;101388.16;5028098;28;20661;-74
2021/09/16 03:38:18;;;;;;;1.23;1.10;;;;;;;10.58;74.86;101387.56;5027696;28;20264;-74
2021/09/16 03:40:46;;;;;;;2.00;0.90;;;;;;;10.56;75.42;101381.41;5028015;28;20637;-74
2021/09/16 03:43:16;;;;;;;1.13;1.10;;;;;;;10.61;74.64;101379.31;5029474;28;20205;-74
2021/09/16 03:45:44;;;;;;;1.83;0.87;;;;;;;10.43;75.18;101369.66;5031405;28;20566;-74
2021/09/16 03:48:12;;;;;;;1.93;0.90;;;;;;;10.57;75.28;101389.38;5030383;28;20252;-74
2021/09/16 03:50:40;;;;;;;1.03;0.93;;;;;;;10.48;75.15;101384.53;5024935;28;20207;-74
2021/09/16 03:53:08;;;;;;;1.93;1.20;;;;;;;10.16;75.22;101329.09;5030127;28;20677;-74
2021/09/16 03:55:36;;;;;;;1.00;0.90;;;;;;;10.54;75.18;101388.69;5029556;28;20205;-74
2021/09/16 03:58:05;;;;;;;0.93;0.93;;;;;;;10.40;75.52;101388.59;5025549;28;20206;-76
2021/09/16 04:00:34;;;;;;;0.80;0.80;;;;;;;10.39;75.51;101379.66;5023966;28;20219;-75
2021/09/16 04:03:06;;;;;;;0.80;0.80;;;;;;;10.47;75.04;101385.50;5030510;28;20197;-76
2021/09/16 04:05:35;;;;;;;1.07;0.97;;;;;;;10.38;75.90;101379.75;5031255;28;20207;-75
2021/09/16 04:08:03;;;;;;;2.10;1.10;;;;;;;10.18;76.55;101370.13;5030976;28;20202;-76
2021/09/16 04:10:32;;;;;;;2.30;1.00;;;;;;;10.22;76.67;101382.44;5030616;28;20265;-76
2021/09/16 04:13:00;;;;;;;1.80;1.13;;;;;;;10.23;76.69;101373.44;5029932;28;20244;-75
2021/09/16 04:15:28;;;;;;;1.60;1.00;;;;;;;10.11;76.59;101350.81;5026742;28;20207;-74
2021/09/16 04:17:58;;;;;;;1.07;0.70;;;;;;;10.21;76.47;101370.00;5027850;28;20254;-74
2021/09/16 04:20:26;;;;;;;1.43;1.20;;;;;;;10.15;76.70;101368.47;5030705;28;20229;-74
2021/09/16 04:22:54;;;;;;;1.30;0.90;;;;;;;10.20;76.34;101366.44;5030877;28;20221;-74
2021/09/16 04:25:22;;;;;;;1.17;1.10;;;;;;;10.15;76.55;101360.44;5030504;28;20194;-74
2021/09/16 04:27:50;;;;;;;1.23;1.10;;;;;;;10.21;76.73;101368.16;5030478;28;20195;-74
2021/09/16 04:30:18;;;;;;;1.93;1.70;;;;;;;10.22;76.40;101369.91;5028448;28;20588;-74
2021/09/16 04:32:46;;;;;;;1.73;1.10;;;;;;;10.26;76.40;101365.22;5025771;28;20211;-75
2021/09/16 04:35:15;;;;;;;1.30;1.20;;;;;;;10.28;76.30;101371.38;5024272;28;20261;-73
2021/09/16 04:37:43;;;;;;;1.30;1.10;;;;;;;10.36;76.24;101365.56;5022751;28;20294;-73
2021/09/16 04:40:12;;;;;;;0.80;0.80;;;;;;;10.29;76.59;101369.53;5019382;28;20215;-73
2021/09/16 04:42:40;;;;;;;1.20;1.10;;;;;;;10.32;76.60;101367.56;5029664;28;20698;-74
2021/09/16 04:45:09;;;;;;;0.77;0.77;;;;;;;10.33;76.57;101368.41;5026711;28;20210;-74
2021/09/16 04:47:39;;;;;;;1.13;0.93;;;;;;;10.37;76.38;101364.59;5025717;28;20202;-76
2021/09/16 04:50:09;;;;;;;1.20;1.10;;;;;;;10.35;77.01;101369.19;5027004;28;20201;-73
2021/09/16 04:52:39;;;;;;;1.37;1.00;;;;;;;10.39;76.59;101360.00;5029789;28;20236;-73
2021/09/16 04:55:08;;;;;;;1.27;1.20;;;;;;;10.45;75.92;101362.38;5044011;28;20202;-74
2021/09/16 04:57:37;;;;;;;1.60;1.20;;;;;;;10.35;76.69;101361.13;5029612;28;20208;-75
2021/09/16 05:00:07;;;;;;;1.80;1.00;;;;;;;10.29;77.31;101357.00;5025694;28;20276;-74
2021/09/16 05:02:35;;;;;;;3.23;1.20;;;;;;;10.24;76.94;101359.94;5028574;28;20264;-74
2021/09/16 05:05:04;;;;;;;1.20;1.10;;;;;;;10.28;76.94;101344.53;5028657;28;20260;-74
2021/09/16 05:07:32;;;;;;;1.53;1.10;;;;;;;10.21;77.51;101348.50;5030173;28;20209;-74
2021/09/16 05:10:02;;;;;;;1.30;1.20;;;;;;;10.26;77.72;101347.28;5029480;28;20669;-74
2021/09/16 05:12:30;;;;;;;1.80;1.10;;;;;;;10.18;78.26;101356.72;5016208;28;20228;-74
2021/09/16 05:14:58;;;;;;;3.70;0.90;;;;;;;9.83;77.71;101291.59;5029958;28;20212;-75
2021/09/16 05:17:26;;;;;;;1.23;1.10;;;;;;;10.17;78.23;101342.41;5029668;28;20260;-75
2021/09/16 05:19:54;;;;;;;1.63;1.30;;;;;;;10.26;77.91;101341.94;5029038;28;20242;-75
2021/09/16 05:22:22;;;;;;;3.33;1.10;;;;;;;10.25;77.68;101337.50;5028935;28;20206;-74
2021/09/16 05:24:50;;;;;;;1.50;1.40;;;;;;;10.34;77.05;101335.25;5028964;28;20203;-74
2021/09/16 05:27:20;;;;;;;2.97;1.17;;;;;;;10.36;77.65;101341.38;5029164;28;20414;-74
2021/09/16 05:29:48;;;;;;;2.40;1.10;;;;;;;10.35;77.13;101340.53;5029827;28;20194;-65
2021/09/16 05:32:16;;;;;;;8.97;1.10;;;;;;;10.35;77.32;101329.78;5028633;28;20201;-65
2021/09/16 05:34:44;;;;;;;1.43;1.27;;;;;;;10.51;76.97;101325.28;5027907;28;20260;-65
2021/09/16 05:37:13;;;;;;;1.17;0.97;;;;;;;10.41;77.16;101328.59;5029091;28;20198;-65
2021/09/16 05:39:41;;;;;;;1.83;1.10;;;;;;;10.26;77.62;101320.44;5025442;28;20231;-65
2021/09/16 05:42:09;;;;;;;1.83;1.30;;;;;;;10.46;77.46;101307.72;5028310;28;20222;-65
2021/09/16 05:44:38;;;;;;;1.20;1.10;;;;;;;10.34;77.88;101319.13;5026881;28;20214;-65
2021/09/16 05:47:06;;;;;;;5.60;1.10;;;;;;;10.20;77.22;101276.97;5028306;28;20195;-65
2021/09/16 05:49:35;;;;;;;2.53;1.07;;;;;;;10.44;77.43;101325.72;5028160;28;20193;-65
2021/09/16 05:52:03;;;;;;;1.80;1.30;;;;;;;10.40;77.32;101319.63;5028056;28;20190;-65
2021/09/16 05:54:31;;;;;;;2.83;1.37;;;;;;;10.42;77.15;101308.84;5027683;28;20199;-66
2021/09/16 05:56:59;;;;;;;237.70;128.83;;;;;;;10.38;77.39;101312.63;5027918;28;20210;-66
2021/09/16 05:59:27;;;;;;;7.87;6.20;;;;;;;10.42;77.87;101311.53;5028252;28;20206;-66
2021/09/16 06:01:57;;;;;;;3.57;2.97;;;;;;;10.50;78.22;101309.25;5028330;28;20226;-65
2021/09/16 06:04:26;;;;;;;2.00;1.90;;;;;;;10.45;78.10;101289.88;5028218;28;20200;-66
2021/09/16 06:06:54;;;;;;;1.57;1.47;;;;;;;10.62;77.64;101297.78;5027226;28;20597;-66
2021/09/16 06:09:22;;;;;;;1.57;1.40;;;;;;;10.67;77.75;101311.81;5025344;28;20257;-66
2021/09/16 06:11:50;;;;;;;2.37;2.17;;;;;;;10.61;77.50;101301.41;5027555;28;20553;-66
2021/09/16 06:14:18;;;;;;;3.63;3.33;;;;;;;10.59;77.54;101297.97;5030096;28;20191;-66
2021/09/16 06:16:46;;;;;;;3.03;1.70;;;;;;;10.61;77.54;101298.75;5028138;28;20257;-66
2021/09/16 06:19:15;;;;;;;3.40;3.10;;;;;;;10.63;78.29;101306.69;5028011;28;20229;-66
2021/09/16 06:21:43;;;;;;;1.67;1.30;;;;;;;10.52;78.60;101301.97;5027753;28;20222;-66
2021/09/16 06:24:11;;;;;;;3.23;2.93;;;;;;;10.68;78.05;101305.47;5026837;28;20205;-66
2021/09/16 06:26:39;;;;;;;22.93;19.83;;;;;;;10.73;78.29;101289.97;5027577;28;20202;-67
2021/09/16 06:29:07;;;;;;;1.10;1.00;;;;;;;10.74;77.87;101291.69;5027513;28;20260;-66
2021/09/16 06:31:35;;;;;;;1.43;1.33;;;;;;;10.76;77.81;101287.09;5026703;28;20202;-66
2021/09/16 06:34:04;;;;;;;3.07;1.27;;;;;;;10.76;77.61;101287.09;5026764;28;20213;-66
2021/09/16 06:36:33;;;;;;;1.67;1.40;;;;;;;10.77;77.89;101288.81;5028591;28;20210;-66
2021/09/16 06:39:01;;;;;;;1.20;1.10;;;;;;;10.78;77.70;101290.56;5025415;28;20278;-66
2021/09/16 06:41:30;;;;;;;2.00;1.30;;;;;;;10.72;78.19;101285.56;5024978;28;20225;-66
2021/09/16 06:43:58;;;;;;;1.27;1.17;;;;;;;10.69;78.45;101282.16;5025411;28;20195;-65
2021/09/16 06:46:26;;;;;;;1.37;1.10;;;;;;;10.72;78.77;101274.81;5027547;28;20226;-65
2021/09/16 06:48:54;;;;;;;1.67;1.20;;;;;;;10.83;78.45;101285.78;5024420;28;20253;-65
2021/09/16 06:51:22;;;;;;;1.33;1.23;;;;;;;10.79;78.26;101286.06;5025754;28;20227;-66
2021/09/16 06:54:01;;;;;;;2.23;1.10;;;;;;;10.53;78.60;101229.38;5025732;28;20208;-65
2021/09/16 06:56:29;;;;;;;2.07;1.10;;;;;;;10.89;78.14;101282.69;5026473;28;20276;-65
2021/09/16 06:58:58;;;;;;;1.30;1.20;;;;;;;10.87;78.05;101289.13;5023772;28;20233;-66
2021/09/16 07:01:26;;;;;;;2.43;1.17;;;;;;;10.66;78.20;101234.00;5026502;28;20212;-66
2021/09/16 07:03:55;;;;;;;0.97;0.97;;;;;;;10.71;78.36;101248.00;5025767;28;20202;-66
2021/09/16 07:06:39;;;;;;;1.80;1.10;;;;;;;10.96;77.75;101272.44;5026649;28;20673;-66
2021/09/16 07:09:10;;;;;;;1.37;1.27;;;;;;;11.03;78.36;101281.03;5024480;28;20198;-66
2021/09/16 07:11:38;;;;;;;1.10;1.00;;;;;;;11.08;78.30;101277.09;5024517;28;20206;-65
2021/09/16 07:14:06;;;;;;;1.37;1.13;;;;;;;11.11;77.77;101284.09;5022506;28;20198;-65
2021/09/16 07:16:34;;;;;;;1.63;1.10;;;;;;;11.13;78.15;101282.19;5024781;28;20224;-66
2021/09/16 07:19:03;;;;;;;1.10;1.10;;;;;;;11.20;78.04;101273.63;5026819;28;20637;-65
2021/09/16 07:21:31;;;;;;;0.93;0.90;;;;;;;11.21;77.24;101277.19;5029298;28;20774;-65
2021/09/16 07:24:01;;;;;;;1.63;1.27;;;;;;;11.29;77.70;101274.88;5031600;28;20213;-66
2021/09/16 07:26:30;;;;;;;1.27;1.10;;;;;;;11.32;77.18;101277.38;5031476;28;20200;-66
2021/09/16 07:28:59;;;;;;;1.00;1.00;;;;;;;11.38;76.92;101281.53;5031049;28;20191;-66
2021/09/16 07:31:28;;;;;;;2.63;1.20;;;;;;;11.39;76.73;101278.75;5030887;28;20191;-65
2021/09/16 07:33:57;;;;;;;1.00;0.90;;;;;;;11.43;77.33;101280.28;5031291;28;20275;-65
2021/09/16 07:36:25;;;;;;;2.83;1.40;;;;;;;11.51;77.00;101274.41;5029290;28;20209;-66
2021/09/16 07:38:53;;;;;;;1.00;0.93;;;;;;;11.58;77.01;101272.19;5045986;28;20196;-66
2021/09/16 07:41:22;;;;;;;2.20;1.00;;;;;;;11.63;76.72;101270.06;5033091;28;20416;-66
2021/09/16 07:43:51;;;;;;;2.47;1.10;;;;;;;11.68;76.37;101273.34;5033054;28;20205;-65
2021/09/16 07:46:19;;;;;;;1.23;0.87;;;;;;;11.71;76.25;101281.22;5028634;28;20206;-67
2021/09/16 07:48:47;;;;;;;1.60;0.80;;;;;;;11.75;76.31;101272.00;5030745;28;20628;-67
2021/09/16 07:51:15;;;;;;;1.77;1.03;;;;;;;11.80;75.82;101269.88;5043344;28;20670;-66
2021/09/16 07:53:43;;;;;;;1.90;1.00;;;;;;;11.59;76.20;101214.72;5024588;28;20222;-66
2021/09/16 07:56:12;;;;;;;4.20;0.80;;;;;;;11.90;75.60;101264.78;5015906;28;20208;-67
2021/09/16 07:58:40;;;;;;;3.10;1.00;;;;;;;11.94;75.57;101267.19;5030813;28;20200;-67
2021/09/16 08:01:10;;;;;;;1.27;0.80;;;;;;;11.95;75.96;101252.75;5029961;28;20240;-67
2021/09/16 08:03:38;;;;;;;2.20;1.03;;;;;;;12.06;75.98;101271.75;5027833;28;20227;-67
2021/09/16 08:06:08;;;;;;;2.90;1.17;;;;;;;12.15;75.13;101264.03;5026415;28;20446;-65
2021/09/16 08:08:36;;;;;;;3.10;1.00;;;;;;;12.18;75.15;101259.31;5027953;28;20238;-65
2021/09/16 08:11:04;;;;;;;0.90;0.90;;;;;;;12.20;75.24;101257.38;5029466;28;20195;-66
2021/09/16 08:13:32;;;;;;;0.83;0.83;;;;;;;12.08;75.37;101232.13;5029032;28;20195;-66
2021/09/16 08:16:00;;;;;;;0.90;0.90;;;;;;;12.27;75.06;101264.09;5029791;28;20230;-66
2021/09/16 08:18:30;;;;;;;1.13;0.87;;;;;;;12.31;75.40;101259.38;5028385;28;20291;-65
2021/09/16 08:20:58;;;;;;;1.00;0.90;;;;;;;12.14;75.17;101238.94;5029513;28;20252;-66
2021/09/16 08:23:26;;;;;;;1.17;0.83;;;;;;;12.29;74.46;101264.88;5028660;28;20277;-66
2021/09/16 08:25:54;;;;;;;3.40;0.87;;;;;;;12.28;74.92;101259.59;5029849;28;20213;-66
2021/09/16 08:28:22;;;;;;;1.03;0.90;;;;;;;12.34;75.02;101256.47;5030172;28;20230;-66
2021/09/16 08:30:50;;;;;;;2.10;0.70;;;;;;;12.34;75.22;101254.66;5020521;28;20238;-65
2021/09/16 08:33:18;;;;;;;2.63;0.97;;;;;;;12.42;75.28;101264.91;5024589;28;20194;-66
2021/09/16 08:35:48;;;;;;;1.97;0.73;;;;;;;12.43;74.73;101253.16;5025482;28;20669;-66
2021/09/16 08:38:16;;;;;;;1.00;0.90;;;;;;;12.41;74.71;101257.78;5027828;28;20199;-67
2021/09/16 08:40:45;;;;;;;3.40;1.10;;;;;;;12.33;74.96;101228.69;5028534;28;20253;-66
2021/09/16 08:43:14;;;;;;;0.80;0.80;;;;;;;12.48;75.10;101260.91;5027070;28;20220;-67
2021/09/16 08:45:42;;;;;;;2.60;0.83;;;;;;;12.46;75.15;101252.94;5027548;28;20638;-66
2021/09/16 08:48:10;;;;;;;1.03;0.97;;;;;;;12.48;74.39;101261.78;5027035;28;20232;-66
2021/09/16 08:50:38;;;;;;;1.40;0.90;;;;;;;12.43;75.41;101261.22;5027146;28;20254;-67
2021/09/16 08:53:08;;;;;;;2.30;1.00;;;;;;;12.49;74.75;101263.50;5027630;28;20413;-66
2021/09/16 08:55:36;;;;;;;6.20;1.03;;;;;;;12.49;75.22;101250.03;5026788;28;20257;-66
2021/09/16 08:58:09;;;;;;;2.23;0.90;;;;;;;12.44;74.40;101249.50;5026743;28;20197;-66
2021/09/16 09:00:38;;;;;;;1.60;0.93;;;;;;;12.50;74.38;101241.00;5027687;28;20207;-66
2021/09/16 09:03:06;;;;;;;1.07;0.97;;;;;;;12.55;74.60;101246.06;5040663;28;20683;-66
2021/09/16 09:05:34;;;;;;;1.53;0.80;;;;;;;12.52;74.07;101252.53;5027460;28;20203;-65
2021/09/16 09:08:04;;;;;;;0.73;0.73;;;;;;;12.22;73.93;101181.88;5026270;28;20216;-65
2021/09/16 09:10:37;;;;;;;1.40;0.80;;;;;;;12.59;73.79;101253.84;5026216;28;20277;-65
2021/09/16 09:13:06;;;;;;;2.73;0.80;;;;;;;12.30;73.75;101190.31;5028793;28;20195;-65
2021/09/16 09:15:38;;;;;;;0.70;0.70;;;;;;;12.59;73.58;101248.47;5024873;28;20205;-66
2021/09/16 09:18:08;;;;;;;1.90;0.90;;;;;;;12.57;73.33;101250.41;5022321;28;20201;-65
2021/09/16 09:20:54;;;;;;;4.00;1.10;;;;;;;12.59;73.78;101239.53;5027596;28;20201;-66
2021/09/16 09:23:25;;;;;;;1.50;0.70;;;;;;;12.59;73.77;101248.47;5027146;28;20218;-66
2021/09/16 09:25:55;;;;;;;1.17;0.73;;;;;;;12.61;73.71;101241.16;5027888;28;20297;-66
2021/09/16 09:28:31;;;;;;;2.23;1.10;;;;;;;12.65;73.54;101248.03;5027950;28;20250;-65
2021/09/16 09:31:02;;;;;;;1.47;1.00;;;;;;;12.66;73.38;101246.22;5028563;28;20254;-66
2021/09/16 09:33:32;;;;;;;2.47;0.80;;;;;;;12.62;73.36;101242.00;5023764;28;20209;-67
2021/09/16 09:36:09;;;;;;;0.83;0.70;;;;;;;12.66;72.68;101243.53;5026645;28;20671;-66
2021/09/16 09:38:52;;;;;;;3.20;0.90;;;;;;;12.67;72.76;101248.81;5042705;28;20203;-66
2021/09/16 09:41:31;;;;;;;0.97;0.87;;;;;;;12.66;72.59;101247.06;5027329;28;20843;-67
2021/09/16 09:44:08;;;;;;;0.77;0.77;;;;;;;12.67;72.76;101248.81;5026510;28;20231;-66
2021/09/16 09:46:42;;;;;;;1.10;1.00;;;;;;;12.65;72.77;101253.44;5026748;28;20572;-66
2021/09/16 09:49:13;;;;;;;3.50;1.00;;;;;;;12.67;72.67;101251.50;5026748;28;20195;-66
2021/09/16 09:51:42;;;;;;;1.13;0.73;;;;;;;12.63;73.05;101249.97;5028883;28;20636;-66
2021/09/16 09:54:16;;;;;;;0.90;0.83;;;;;;;12.65;72.65;101249.88;5021366;28;20218;-66
2021/09/16 09:56:59;;;;;;;1.20;0.87;;;;;;;12.50;72.57;101235.59;5022913;28;20264;-66
2021/09/16 09:59:34;;;;;;;0.80;0.80;;;;;;;12.62;72.08;101250.09;5017951;28;20287;-66
2021/09/16 10:02:04;;;;;;;2.30;1.10;;;;;;;12.65;72.56;101253.44;5013057;28;20263;-66
2021/09/16 10:04:32;;;;;;;2.27;0.90;;;;;;;12.60;71.90;101260.13;5027190;28;20722;-66
2021/09/16 10:07:01;;;;;;;1.47;0.83;;;;;;;12.59;71.68;101280.81;5018107;28;20203;-66
2021/09/16 10:09:29;;;;;;;2.20;1.00;;;;;;;12.58;72.19;101262.91;5024335;28;20642;-66
2021/09/16 10:11:59;;;;;;;1.50;0.83;;;;;;;12.56;71.84;101270.22;5025138;28;20669;-66
2021/09/16 10:14:27;;;;;;;1.87;1.10;;;;;;;12.61;71.71;101272.63;5023605;28;20591;-67
2021/09/16 10:16:55;;;;;;;1.33;0.87;;;;;;;12.63;72.19;101276.94;5025530;28;20296;-66
2021/09/16 10:19:23;;;;;;;3.43;0.83;;;;;;;12.66;71.51;101274.03;5028009;28;20238;-67
2021/09/16 10:21:51;;;;;;;10.67;1.20;;;;;;;12.50;71.52;101243.69;5027566;28;20259;-67
2021/09/16 10:24:19;;;;;;;1.10;1.00;;;;;;;12.70;72.21;101271.97;5026646;28;20724;-66
2021/09/16 10:26:49;;;;;;;0.80;0.80;;;;;;;12.72;72.03;101276.28;5027601;28;20195;-66
2021/09/16 10:29:36;;;;;;;2.73;1.00;;;;;;;12.56;72.34;101259.47;5027368;28;20230;-67
2021/09/16 10:32:38;;;;;;;2.20;1.00;;;;;;;12.56;72.04;101270.22;5027324;28;20200;-66
2021/09/16 10:35:19;;;;;;;1.47;0.90;;;;;;;12.56;72.79;101275.63;5024879;28;20253;-67
2021/09/16 10:37:47;;;;;;;1.17;0.90;;;;;;;12.55;73.05;101264.91;5027536;28;20198;-66
2021/09/16 10:40:27;;;;;;;2.33;0.97;;;;;;;12.34;72.86;101265.41;5036396;28;20251;-66
2021/09/16 10:42:56;;;;;;;1.07;1.07;;;;;;;12.41;72.80;101276.63;5028667;28;20204;-66
2021/09/16 10:45:33;;;;;;;1.73;1.00;;;;;;;12.35;73.30;101271.66;5024087;28;20209;-66
2021/09/16 10:48:27;;;;;;;4.53;1.07;;;;;;;12.33;73.77;101270.91;5024132;28;20605;-66
2021/09/16 10:51:01;;;;;;;1.23;1.00;;;;;;;12.32;74.37;101263.78;5011378;28;20264;-66
2021/09/16 10:53:42;;;;;;;4.33;0.80;;;;;;;12.27;73.96;101260.56;5023277;28;20641;-66
2021/09/16 10:56:38;;;;;;;5.63;1.00;;;;;;;12.27;74.31;101257.84;5011454;28;20282;-66
2021/09/16 10:59:07;;;;;;;2.33;1.00;;;;;;;12.25;74.27;101251.72;5022486;28;20678;-66
2021/09/16 11:01:58;;;;;;;1.67;1.00;;;;;;;12.26;75.41;101251.59;5021616;28;20203;-65
2021/09/16 11:04:27;;;;;;;0.80;0.80;;;;;;;12.20;75.70;101248.44;5027330;28;20264;-67
2021/09/16 11:06:55;;;;;;;1.67;0.90;;;;;;;12.17;75.24;101251.34;5023839;28;20208;-67
2021/09/16 11:09:29;;;;;;;1.00;1.00;;;;;;;12.10;76.04;101240.97;5021665;28;20646;-67
2021/09/16 11:12:03;;;;;;;2.27;1.10;;;;;;;12.07;75.77;101238.50;5019569;28;20671;-66
2021/09/16 11:14:34;;;;;;;1.23;0.93;;;;;;;12.05;76.38;101242.25;5019575;28;20224;-65
2021/09/16 11:17:05;;;;;;;1.23;1.13;;;;;;;12.03;76.20;101226.19;5027228;28;20198;-65
2021/09/16 11:19:33;;;;;;;3.50;1.10;;;;;;;12.03;76.14;101246.88;5027125;28;20260;-65
2021/09/16 11:22:05;;;;;;;1.33;1.00;;;;;;;12.02;74.70;101278.31;5015409;28;20262;-65
2021/09/16 11:24:36;;;;;;;2.00;1.20;;;;;;;11.99;74.43;101238.13;5022834;28;21074;-65
2021/09/16 11:27:05;;;;;;;1.30;0.90;;;;;;;12.02;74.99;101243.31;5026212;28;20201;-65
2021/09/16 11:29:45;;;;;;;1.70;1.00;;;;;;;11.91;74.55;101209.97;5025369;28;20277;-65
2021/09/16 11:32:16;;;;;;;1.17;1.10;;;;;;;12.08;74.89;101231.28;5026741;28;20200;-65
2021/09/16 11:34:55;;;;;;;1.03;0.93;;;;;;;12.13;75.95;101232.69;5024546;28;20604;-65